Time;durP1;ratioP1;P1;durP2;ratioP2;P2;SDS_P1;SDS_P2;PMS_P1;PMS_P2;Temp;Humidity;BMP_temperature;BMP_pressure;BME280_temperature;BME280_humidity;BME280_pressure;Samples;Min_cycle;Max_cycle;Signal;HPM_P1;HPM_P2
2022/11/08 00:03:32;;;;;;;17.53;12.43;;;9.80;99.90;;;;;;5053640;28;20465;-85
2022/11/08 00:14:11;;;;;;;14.20;11.83;;;9.70;99.90;;;;;;5027395;28;20426;-84
2022/11/08 00:16:38;;;;;;;17.60;12.43;;;9.80;99.90;;;;;;5025748;28;20444;-82
2022/11/08 00:19:06;;;;;;;14.30;11.57;;;9.70;99.90;;;;;;5025816;28;20437;-82
2022/11/08 00:21:33;;;;;;;16.80;11.70;;;9.70;99.90;;;;;;5045455;28;20441;-83
2022/11/08 00:24:00;;;;;;;14.50;12.30;;;9.70;99.90;;;;;;5051826;28;20461;-83
2022/11/08 00:26:27;;;;;;;13.33;12.03;;;9.70;99.90;;;;;;5042839;28;20449;-84
2022/11/08 00:28:54;;;;;;;15.30;13.00;;;9.60;99.90;;;;;;5067376;28;20467;-83
2022/11/08 00:31:21;;;;;;;17.13;12.53;;;9.60;99.90;;;;;;5058655;28;20510;-84
2022/11/08 00:33:48;;;;;;;15.17;12.23;;;9.50;99.90;;;;;;5047572;28;20446;-82
2022/11/08 00:36:16;;;;;;;13.90;11.70;;;9.40;99.90;;;;;;5065070;28;20509;-85
2022/11/08 00:38:44;;;;;;;14.87;12.60;;;9.50;99.90;;;;;;5058330;28;20792;-84
2022/11/08 00:41:11;;;;;;;13.60;11.60;;;9.40;99.90;;;;;;5045304;28;20432;-83
2022/11/08 00:43:37;;;;;;;16.20;12.50;;;9.40;99.90;;;;;;5037710;28;20476;-83
2022/11/08 00:46:04;;;;;;;13.60;12.20;;;9.40;99.90;;;;;;5053487;28;20433;-83
2022/11/08 00:48:31;;;;;;;19.23;13.53;;;9.40;99.90;;;;;;5047143;28;20495;-83
2022/11/08 00:51:01;;;;;;;18.27;12.40;;;9.30;99.90;;;;;;5035339;28;20435;-83
2022/11/08 00:53:30;;;;;;;17.23;13.07;;;9.30;99.90;;;;;;5032917;28;20457;-84
2022/11/08 00:56:00;;;;;;;16.10;13.30;;;9.10;99.90;;;;;;5033388;28;20807;-82
2022/11/08 00:58:28;;;;;;;14.53;12.90;;;9.10;99.90;;;;;;5050473;28;20448;-83
2022/11/08 01:00:55;;;;;;;15.43;13.10;;;9.00;99.90;;;;;;5049487;28;20440;-83
2022/11/08 01:03:22;;;;;;;18.20;13.27;;;9.00;99.90;;;;;;5047525;28;20461;-84
2022/11/08 01:05:51;;;;;;;16.07;13.87;;;9.00;99.90;;;;;;5044542;28;20453;-84
2022/11/08 01:08:19;;;;;;;14.30;12.40;;;8.90;99.90;;;;;;5047822;28;20488;-84
2022/11/08 01:10:50;;;;;;;17.27;14.60;;;8.90;99.90;;;;;;5047645;28;20439;-84
2022/11/08 01:13:19;;;;;;;16.87;13.50;;;8.90;99.90;;;;;;5044160;28;20452;-83
2022/11/08 01:15:46;;;;;;;16.23;13.10;;;8.90;99.90;;;;;;5049653;28;20456;-83
2022/11/08 01:18:15;;;;;;;14.70;13.13;;;8.80;99.90;;;;;;5050323;28;20449;-84
2022/11/08 01:20:43;;;;;;;16.37;13.50;;;8.80;99.90;;;;;;5050461;28;20441;-83
2022/11/08 01:23:11;;;;;;;17.70;14.13;;;8.90;99.90;;;;;;5050156;28;20483;-84
2022/11/08 01:25:38;;;;;;;15.67;14.03;;;8.90;99.90;;;;;;5049781;28;20946;-84
2022/11/08 01:28:06;;;;;;;17.73;13.60;;;8.80;99.90;;;;;;5069736;28;20486;-82
2022/11/08 01:30:37;;;;;;;20.60;14.20;;;8.80;99.90;;;;;;5064910;28;20431;-83
2022/11/08 01:33:04;;;;;;;15.20;13.37;;;8.70;99.90;;;;;;5049714;28;20492;-83
2022/11/08 01:35:31;;;;;;;17.87;13.60;;;8.80;99.90;;;;;;5052889;28;20921;-83
2022/11/08 01:37:57;;;;;;;19.23;13.60;;;8.80;99.90;;;;;;5049456;28;20870;-83
2022/11/08 01:40:24;;;;;;;16.70;13.67;;;8.80;99.90;;;;;;5049631;28;20507;-83
2022/11/08 01:42:51;;;;;;;18.00;13.67;;;8.80;99.90;;;;;;5047998;28;20468;-83
2022/11/08 01:45:50;;;;;;;17.03;13.20;;;8.70;99.90;;;;;;5053096;28;20447;-83
2022/11/08 01:48:18;;;;;;;16.10;13.00;;;8.70;99.90;;;;;;5050686;28;20472;-83
2022/11/08 01:50:45;;;;;;;15.90;14.10;;;8.70;99.90;;;;;;5048899;28;20444;-83
2022/11/08 01:53:12;;;;;;;18.53;13.77;;;8.70;99.90;;;;;;5032023;28;20465;-83
2022/11/08 01:55:39;;;;;;;17.63;13.63;;;8.70;99.90;;;;;;5060136;28;20439;-83
2022/11/08 01:58:10;;;;;;;18.33;13.03;;;8.70;99.90;;;;;;5058941;28;20436;-84
2022/11/08 02:00:38;;;;;;;20.60;11.97;;;8.80;99.90;;;;;;5044676;28;20446;-83
2022/11/08 02:03:07;;;;;;;16.60;12.57;;;8.70;99.90;;;;;;5045379;28;20456;-83
2022/11/08 02:05:35;;;;;;;13.97;12.20;;;8.70;99.90;;;;;;5046433;28;20441;-83
2022/11/08 02:08:06;;;;;;;13.27;11.87;;;8.80;99.90;;;;;;5047161;28;20479;-83
2022/11/08 02:10:35;;;;;;;15.87;12.83;;;8.80;99.90;;;;;;5046825;28;20445;-84
2022/11/08 02:13:03;;;;;;;17.00;13.00;;;8.70;99.90;;;;;;5040734;28;20531;-83
2022/11/08 02:15:30;;;;;;;14.80;12.33;;;8.70;99.90;;;;;;5053262;28;20445;-83
2022/11/08 02:17:57;;;;;;;11.90;10.60;;;8.50;99.90;;;;;;5041138;28;20453;-83
2022/11/08 02:20:23;;;;;;;18.90;13.83;;;8.50;99.90;;;;;;5069359;28;20456;-84
2022/11/08 02:22:56;;;;;;;25.37;13.50;;;8.50;99.90;;;;;;5060364;28;20528;-84
2022/11/08 02:25:25;;;;;;;16.50;13.83;;;8.50;99.90;;;;;;5050302;28;20453;-84
2022/11/08 02:27:51;;;;;;;14.33;11.43;;;8.50;99.90;;;;;;5049205;28;20467;-83
2022/11/08 02:30:18;;;;;;;13.90;12.57;;;8.50;99.90;;;;;;5072228;28;20460;-84
2022/11/08 02:32:46;;;;;;;20.03;11.93;;;8.40;99.90;;;;;;5051645;28;20465;-84
2022/11/08 02:35:17;;;;;;;14.60;11.90;;;8.40;99.90;;;;;;5035798;28;21189;-85
2022/11/08 02:37:44;;;;;;;12.07;10.77;;;8.30;99.90;;;;;;5047256;28;20449;-83
2022/11/08 02:40:11;;;;;;;13.30;10.40;;;8.30;99.90;;;;;;5056489;28;20443;-83
2022/11/08 02:42:40;;;;;;;10.80;9.60;;;8.30;99.90;;;;;;5038498;28;20463;-83
2022/11/08 02:45:08;;;;;;;13.20;10.80;;;8.30;99.90;;;;;;5050032;28;20437;-84
2022/11/08 02:47:34;;;;;;;11.50;10.30;;;8.20;99.90;;;;;;5049814;28;20500;-83
2022/11/08 02:50:01;;;;;;;11.20;10.10;;;8.20;99.90;;;;;;5058189;28;20532;-83
2022/11/08 02:52:28;;;;;;;16.00;10.30;;;8.30;99.90;;;;;;5067485;28;20458;-83
2022/11/08 02:54:55;;;;;;;16.23;11.67;;;8.30;99.90;;;;;;5069068;28;20508;-83
2022/11/08 02:57:21;;;;;;;15.60;11.17;;;8.20;99.90;;;;;;5059953;28;20439;-84
2022/11/08 02:59:49;;;;;;;11.93;10.70;;;8.20;99.90;;;;;;5060399;28;20444;-83
2022/11/08 03:02:16;;;;;;;14.23;10.80;;;8.20;99.90;;;;;;5047054;28;20472;-85
2022/11/08 03:04:43;;;;;;;13.97;10.67;;;8.10;99.90;;;;;;5046098;28;20976;-84
2022/11/08 03:07:10;;;;;;;12.87;10.67;;;8.10;99.90;;;;;;5049086;28;20433;-84
2022/11/08 03:09:36;;;;;;;11.97;10.70;;;8.20;99.90;;;;;;5047230;28;20475;-83
2022/11/08 03:12:03;;;;;;;13.73;11.70;;;8.20;99.90;;;;;;5036300;28;20485;-84
2022/11/08 03:14:30;;;;;;;15.00;10.63;;;8.20;99.90;;;;;;5045872;28;20449;-84
2022/11/08 03:16:58;;;;;;;14.00;11.03;;;8.10;99.90;;;;;;5045303;28;20443;-83
2022/11/08 03:19:25;;;;;;;12.93;10.87;;;8.00;99.90;;;;;;5027037;28;20430;-83
2022/11/08 03:21:51;;;;;;;11.40;10.30;;;8.00;99.90;;;;;;5032742;28;20469;-83
2022/11/08 03:24:18;;;;;;;11.97;10.77;;;7.90;99.90;;;;;;5043407;28;20813;-84
2022/11/08 03:26:45;;;;;;;12.90;11.60;;;8.00;99.90;;;;;;5044269;28;20465;-83
2022/11/08 03:29:11;;;;;;;16.00;11.73;;;8.00;99.90;;;;;;5054192;28;20462;-83
2022/11/08 03:31:38;;;;;;;17.10;13.03;;;8.00;99.90;;;;;;5068725;28;20457;-82
2022/11/08 03:34:06;;;;;;;13.53;12.23;;;7.90;99.90;;;;;;5053747;28;20437;-83
2022/11/08 03:36:33;;;;;;;15.83;11.83;;;7.80;99.90;;;;;;5033639;28;20463;-84
2022/11/08 03:39:00;;;;;;;13.90;11.77;;;7.80;99.90;;;;;;5050088;28;20457;-84
2022/11/08 03:41:26;;;;;;;17.33;12.37;;;7.80;99.90;;;;;;5046623;28;20468;-84
2022/11/08 03:43:53;;;;;;;16.50;12.60;;;7.80;99.90;;;;;;5046688;28;20468;-84
2022/11/08 03:46:20;;;;;;;14.87;13.20;;;7.70;99.90;;;;;;5047113;28;20443;-84
2022/11/08 03:48:46;;;;;;;13.87;12.30;;;7.70;99.90;;;;;;5061396;28;20463;-84
2022/11/08 03:51:14;;;;;;;18.40;12.53;;;7.60;99.90;;;;;;5059162;28;20434;-83
2022/11/08 03:53:41;;;;;;;13.03;11.73;;;7.70;99.90;;;;;;5052149;28;20452;-84
2022/11/08 03:56:08;;;;;;;17.17;12.60;;;7.80;99.90;;;;;;5048005;28;20448;-84
2022/11/08 03:58:35;;;;;;;13.60;12.10;;;7.70;99.90;;;;;;5047172;28;20444;-84
2022/11/08 04:01:04;;;;;;;13.33;11.73;;;7.60;99.90;;;;;;5049549;28;20486;-84
2022/11/08 04:03:31;;;;;;;14.00;12.47;;;7.60;99.90;;;;;;5051667;28;20453;-84
2022/11/08 04:05:59;;;;;;;14.37;12.83;;;7.50;99.90;;;;;;5048085;28;20442;-84
2022/11/08 04:08:28;;;;;;;18.80;13.27;;;7.60;99.90;;;;;;5039041;28;20822;-84
2022/11/08 04:10:55;;;;;;;22.17;14.30;;;7.50;99.90;;;;;;5047559;28;20459;-84
2022/11/08 04:16:07;;;;;;;16.90;13.07;;;7.40;99.90;;;;;;5050466;28;20460;-83
2022/11/08 04:21:20;;;;;;;15.90;13.47;;;7.30;99.90;;;;;;5048696;28;20415;-84
2022/11/08 04:23:50;;;;;;;18.53;13.90;;;7.30;99.90;;;;;;5033224;28;20460;-84
2022/11/08 04:26:17;;;;;;;17.47;12.73;;;7.30;99.90;;;;;;5048047;28;20466;-84
2022/11/08 04:28:44;;;;;;;19.70;13.20;;;7.20;99.90;;;;;;5049584;28;20553;-84
2022/11/08 04:31:13;;;;;;;16.97;13.03;;;7.20;99.90;;;;;;5069731;28;20421;-83
2022/11/08 04:33:40;;;;;;;15.60;13.53;;;7.20;99.90;;;;;;5066666;28;20499;-84
2022/11/08 04:36:09;;;;;;;19.63;13.10;;;7.20;99.90;;;;;;5046493;28;20445;-83
2022/11/08 04:38:36;;;;;;;17.47;12.90;;;7.20;99.90;;;;;;5044177;28;20467;-84
2022/11/08 04:41:06;;;;;;;15.50;13.90;;;7.30;99.90;;;;;;5045272;28;20445;-83
2022/11/08 04:43:33;;;;;;;17.57;13.00;;;7.20;99.90;;;;;;5043139;28;20456;-84
2022/11/08 04:46:01;;;;;;;19.87;12.80;;;7.20;99.90;;;;;;5045923;28;21029;-84
2022/11/08 04:48:28;;;;;;;15.53;10.50;;;7.30;99.90;;;;;;5053945;28;20482;-82
2022/11/08 04:50:55;;;;;;;15.20;10.87;;;7.30;99.90;;;;;;5067335;28;20417;-83
2022/11/08 04:53:22;;;;;;;15.40;11.93;;;7.20;99.90;;;;;;5065050;28;20452;-82
2022/11/08 04:55:49;;;;;;;16.87;12.63;;;7.20;99.90;;;;;;5063146;28;20460;-83
2022/11/08 04:58:17;;;;;;;18.30;12.43;;;7.30;99.90;;;;;;5049848;28;20430;-84
2022/11/08 05:00:44;;;;;;;16.27;12.70;;;7.30;99.90;;;;;;5032167;28;20828;-83
2022/11/08 05:03:11;;;;;;;12.20;10.80;;;7.30;99.90;;;;;;5039132;28;20457;-84
2022/11/08 05:05:38;;;;;;;16.40;11.27;;;7.40;99.90;;;;;;5050705;28;20447;-85
2022/11/08 05:08:05;;;;;;;14.63;11.50;;;7.30;99.90;;;;;;5050838;28;20432;-84
2022/11/08 05:10:32;;;;;;;15.87;11.53;;;7.30;99.90;;;;;;5031463;28;20831;-84
2022/11/08 05:12:58;;;;;;;16.53;12.27;;;7.20;99.90;;;;;;5041631;28;20469;-85
2022/11/08 05:15:26;;;;;;;15.27;11.67;;;7.20;99.90;;;;;;5055467;28;20448;-83
2022/11/08 05:17:57;;;;;;;13.50;11.40;;;7.20;99.90;;;;;;5054422;28;20448;-84
2022/11/08 05:23:25;;;;;;;12.90;10.70;;;7.10;99.90;;;;;;5056546;28;20455;-84
2022/11/08 05:25:56;;;;;;;14.60;10.57;;;7.20;99.90;;;;;;5067147;28;20504;-83
2022/11/08 05:28:23;;;;;;;13.33;11.40;;;7.30;99.90;;;;;;5061217;28;20484;-84
2022/11/08 05:30:58;;;;;;;12.00;10.60;;;7.30;99.90;;;;;;5059492;28;20447;-84
2022/11/08 05:33:26;;;;;;;15.70;11.53;;;7.40;99.90;;;;;;5057925;28;20547;-84
2022/11/08 05:35:53;;;;;;;19.07;11.27;;;7.40;99.90;;;;;;5071063;28;20447;-84
2022/11/08 05:38:20;;;;;;;17.97;10.20;;;7.30;99.90;;;;;;5052917;28;20489;-84
2022/11/08 05:40:47;;;;;;;16.13;10.80;;;7.20;99.90;;;;;;5045263;28;20440;-84
2022/11/08 05:43:15;;;;;;;12.77;10.90;;;7.20;99.90;;;;;;5055038;28;20474;-83
2022/11/08 05:45:41;;;;;;;14.03;10.83;;;7.10;99.90;;;;;;5065131;28;20436;-87
2022/11/08 05:48:09;;;;;;;13.97;11.33;;;7.10;99.90;;;;;;5062235;28;20480;-85
2022/11/08 05:50:36;;;;;;;15.50;10.37;;;7.20;99.90;;;;;;5051946;28;20487;-84
2022/11/08 05:53:03;;;;;;;12.00;10.13;;;7.10;99.90;;;;;;5053934;28;20463;-84
2022/11/08 05:55:30;;;;;;;17.20;11.70;;;7.20;99.90;;;;;;5068968;28;20430;-85
2022/11/08 05:57:57;;;;;;;12.57;10.03;;;7.20;99.90;;;;;;5053241;28;20444;-84
2022/11/08 06:00:23;;;;;;;15.47;11.87;;;7.10;99.90;;;;;;5078957;22;20437;-83
2022/11/08 06:02:50;;;;;;;14.53;9.63;;;7.20;99.90;;;;;;5071448;28;20440;-84
2022/11/08 06:05:18;;;;;;;15.73;11.87;;;7.20;99.90;;;;;;5039504;28;20446;-83
2022/11/08 06:07:45;;;;;;;12.90;11.20;;;7.30;99.90;;;;;;5053778;28;20443;-82
2022/11/08 06:10:12;;;;;;;15.77;10.13;;;7.30;99.90;;;;;;5061439;28;20476;-83
2022/11/08 06:12:38;;;;;;;28.30;11.40;;;7.30;99.90;;;;;;5066781;28;20456;-82
2022/11/08 06:15:06;;;;;;;14.60;10.53;;;7.30;99.90;;;;;;5059939;28;20441;-83
2022/11/08 06:17:34;;;;;;;16.77;10.00;;;7.30;99.90;;;;;;5058902;28;20524;-83
2022/11/08 06:20:00;;;;;;;26.80;13.17;;;7.30;99.90;;;;;;5057708;28;20448;-83
2022/11/08 06:22:31;;;;;;;20.43;11.83;;;7.30;99.90;;;;;;5058076;28;20669;-83
2022/11/08 06:24:58;;;;;;;16.53;12.47;;;7.20;99.90;;;;;;5058915;28;20532;-83
2022/11/08 06:27:25;;;;;;;18.07;12.00;;;7.20;99.90;;;;;;5058768;28;20455;-82
2022/11/08 06:29:51;;;;;;;15.50;12.17;;;7.10;99.90;;;;;;5057523;28;20487;-83
2022/11/08 06:32:18;;;;;;;25.57;13.63;;;7.10;99.90;;;;;;5059435;28;20988;-83
2022/11/08 06:34:45;;;;;;;17.87;11.97;;;7.10;99.90;;;;;;5068615;28;20425;-80
2022/11/08 06:37:12;;;;;;;23.93;12.23;;;7.10;99.90;;;;;;5071334;28;21027;-83
2022/11/08 06:39:41;;;;;;;20.43;12.03;;;7.10;99.90;;;;;;5060552;28;20460;-83
2022/11/08 06:42:08;;;;;;;26.07;14.07;;;7.10;99.90;;;;;;5058842;28;20461;-83
2022/11/08 06:44:35;;;;;;;16.70;11.53;;;7.20;99.90;;;;;;5058417;28;20555;-82
2022/11/08 06:47:02;;;;;;;17.13;11.20;;;7.20;99.90;;;;;;5058102;28;20448;-83
2022/11/08 06:49:28;;;;;;;14.53;10.53;;;7.30;99.90;;;;;;5058640;28;20484;-83
2022/11/08 06:51:55;;;;;;;16.23;11.00;;;7.30;99.90;;;;;;5058493;28;20460;-84
2022/11/08 06:54:22;;;;;;;18.23;10.93;;;7.30;99.90;;;;;;5059906;28;20445;-85
2022/11/08 06:56:50;;;;;;;15.20;12.40;;;7.40;99.90;;;;;;5057159;28;20451;-83
2022/11/08 06:59:16;;;;;;;33.70;12.33;;;7.40;99.90;;;;;;5056512;28;20956;-82
2022/11/08 07:01:43;;;;;;;14.43;11.90;;;7.40;99.90;;;;;;5056438;28;20477;-82
2022/11/08 07:04:10;;;;;;;13.03;10.20;;;7.30;99.90;;;;;;5056209;28;20445;-83
2022/11/08 07:06:36;;;;;;;15.33;11.70;;;7.40;99.90;;;;;;5057070;28;20449;-84
2022/11/08 07:09:03;;;;;;;16.07;10.70;;;7.40;99.90;;;;;;5059731;28;20445;-81
2022/11/08 07:11:30;;;;;;;12.53;11.07;;;7.40;99.90;;;;;;5064122;28;20926;-85
2022/11/08 07:13:58;;;;;;;24.50;12.60;;;7.50;99.90;;;;;;5069003;28;20425;-83
2022/11/08 07:16:25;;;;;;;18.40;10.60;;;7.60;99.90;;;;;;5073688;28;20436;-83
2022/11/08 07:18:51;;;;;;;16.73;11.27;;;7.70;99.90;;;;;;5071447;28;20449;-83
2022/11/08 07:21:18;;;;;;;19.53;12.83;;;7.80;99.90;;;;;;5076304;28;20459;-83
2022/11/08 07:23:45;;;;;;;18.13;11.57;;;7.90;99.90;;;;;;5063999;28;20456;-84
2022/11/08 07:26:12;;;;;;;20.10;12.97;;;8.00;99.90;;;;;;5059165;28;20445;-82
2022/11/08 07:28:39;;;;;;;17.47;11.80;;;8.10;99.90;;;;;;5059684;28;20961;-85
2022/11/08 07:31:08;;;;;;;18.60;12.53;;;8.20;99.90;;;;;;5054886;28;20527;-83
2022/11/08 07:33:35;;;;;;;21.17;12.80;;;8.40;99.90;;;;;;5057498;28;20467;-83
2022/11/08 07:36:03;;;;;;;18.13;12.60;;;8.50;99.90;;;;;;5055988;28;20445;-82
2022/11/08 07:38:30;;;;;;;17.40;11.37;;;8.60;99.90;;;;;;5057637;28;20731;-83
2022/11/08 07:40:57;;;;;;;19.67;12.90;;;8.70;99.90;;;;;;5057261;28;20467;-83
2022/11/08 07:43:25;;;;;;;18.93;11.77;;;8.70;99.90;;;;;;5057002;28;20518;-84
2022/11/08 07:45:54;;;;;;;18.60;12.77;;;8.70;99.90;;;;;;5056631;28;20455;-84
2022/11/08 07:48:23;;;;;;;16.97;11.60;;;8.70;99.90;;;;;;5062700;28;20448;-84
2022/11/08 07:50:50;;;;;;;26.80;12.10;;;8.60;99.90;;;;;;5059723;28;20491;-83
2022/11/08 07:53:16;;;;;;;21.17;12.10;;;8.70;99.90;;;;;;5059100;28;20448;-83
2022/11/08 07:55:45;;;;;;;19.70;12.43;;;8.60;99.90;;;;;;5057767;28;20532;-84
2022/11/08 07:58:12;;;;;;;32.43;14.23;;;8.60;99.90;;;;;;5056910;28;20844;-84
2022/11/08 08:00:41;;;;;;;19.77;12.27;;;8.60;99.90;;;;;;5057046;28;20563;-84
2022/11/08 08:03:11;;;;;;;16.00;9.57;;;8.60;99.90;;;;;;5073499;28;20453;-83
2022/11/08 08:05:41;;;;;;;15.30;9.73;;;8.60;99.90;;;;;;5062214;28;20527;-84
2022/11/08 08:08:09;;;;;;;12.50;9.40;;;8.60;99.90;;;;;;5057727;28;20959;-84
2022/11/08 08:10:36;;;;;;;10.50;8.73;;;8.60;99.90;;;;;;5066009;28;20474;-81
2022/11/08 08:13:03;;;;;;;11.00;8.90;;;8.60;99.90;;;;;;5076431;28;20444;-81
2022/11/08 08:15:30;;;;;;;15.53;9.03;;;8.70;99.90;;;;;;5076487;28;20460;-82
2022/11/08 08:17:59;;;;;;;17.50;10.03;;;9.00;99.90;;;;;;5071108;28;20452;-82
2022/11/08 08:20:26;;;;;;;17.30;9.43;;;9.30;99.90;;;;;;5059511;28;20535;-83
2022/11/08 08:22:54;;;;;;;16.83;9.50;;;9.80;99.90;;;;;;5060090;28;20965;-82
2022/11/08 08:25:21;;;;;;;14.07;9.60;;;10.50;99.90;;;;;;5059232;28;20456;-82
2022/11/08 08:27:48;;;;;;;13.77;9.70;;;10.80;99.90;;;;;;5078570;28;20429;-82
2022/11/08 08:30:16;;;;;;;11.83;9.10;;;11.00;99.90;;;;;;5072851;28;20895;-83
2022/11/08 08:32:42;;;;;;;12.07;8.37;;;11.40;99.90;;;;;;5071194;28;20536;-83
2022/11/08 08:35:10;;;;;;;10.40;8.20;;;11.90;99.90;;;;;;5071508;28;20439;-84
2022/11/08 08:37:37;;;;;;;8.77;7.07;;;12.00;99.90;;;;;;5068965;28;20445;-83
2022/11/08 08:40:06;;;;;;;9.10;6.90;;;12.10;99.90;;;;;;5074512;28;20436;-81
2022/11/08 08:42:33;;;;;;;8.20;7.30;;;12.30;99.90;;;;;;5073511;28;20460;-84
2022/11/08 08:45:00;;;;;;;9.83;7.70;;;12.90;99.90;;;;;;5071818;28;20445;-83
2022/11/08 08:47:27;;;;;;;10.30;7.77;;;13.60;99.90;;;;;;5065228;28;20448;-84
2022/11/08 08:49:54;;;;;;;11.73;7.40;;;14.00;99.90;;;;;;5063329;28;20473;-84
2022/11/08 08:52:21;;;;;;;10.77;7.50;;;14.30;99.90;;;;;;5063676;28;20846;-84
2022/11/08 08:54:48;;;;;;;8.27;6.53;;;14.50;99.90;;;;;;5062421;28;20444;-82
2022/11/08 08:57:16;;;;;;;12.20;7.50;;;14.20;99.90;;;;;;5060893;28;20452;-85
2022/11/08 08:59:42;;;;;;;9.20;6.63;;;13.90;99.90;;;;;;5061845;28;20820;-84
2022/11/08 09:02:11;;;;;;;8.20;5.90;;;13.60;99.90;;;;;;5061797;28;20476;-84
2022/11/08 09:04:38;;;;;;;11.07;6.73;;;13.30;99.90;;;;;;5061811;28;20455;-81
2022/11/08 09:07:06;;;;;;;15.60;7.60;;;13.30;99.90;;;;;;5061436;28;20448;-84
2022/11/08 09:09:33;;;;;;;8.87;7.37;;;13.50;99.90;;;;;;5065674;28;20449;-82
2022/11/08 09:12:00;;;;;;;9.67;6.30;;;13.70;99.90;;;;;;5075047;28;20470;-82
2022/11/08 09:14:28;;;;;;;12.37;7.17;;;13.60;99.90;;;;;;5075125;28;20447;-82
2022/11/08 09:16:56;;;;;;;12.07;7.80;;;13.90;99.90;;;;;;5074825;28;20458;-82
2022/11/08 09:19:22;;;;;;;11.03;8.60;;;13.90;99.90;;;;;;5068761;28;20459;-84
2022/11/08 09:21:49;;;;;;;9.33;8.20;;;13.90;99.90;;;;;;5065375;28;20464;-83
2022/11/08 09:24:16;;;;;;;13.70;10.00;;;14.10;99.90;;;;;;5064557;28;20452;-83
2022/11/08 09:26:43;;;;;;;13.33;8.73;;;14.50;99.90;;;;;;5064103;28;20452;-84
2022/11/08 09:29:10;;;;;;;16.77;8.60;;;14.70;99.90;;;;;;5065956;28;20441;-84
2022/11/08 09:31:38;;;;;;;11.90;8.40;;;14.50;99.90;;;;;;5063811;28;20492;-83
2022/11/08 09:34:07;;;;;;;8.90;7.40;;;14.30;99.90;;;;;;5063989;28;20840;-82
2022/11/08 09:36:34;;;;;;;11.70;7.57;;;14.00;99.90;;;;;;5080248;28;20429;-81
2022/11/08 09:39:00;;;;;;;9.80;6.03;;;13.90;99.90;;;;;;5079846;28;20445;-81
2022/11/08 09:41:47;;;;;;;11.07;8.23;;;13.90;99.90;;;;;;5080058;28;20472;-82
2022/11/08 09:44:32;;;;;;;11.80;8.67;;;14.00;99.90;;;;;;5067714;28;20957;-83
2022/11/08 09:47:04;;;;;;;11.30;6.70;;;14.00;99.90;;;;;;5065987;28;20449;-83
2022/11/08 09:49:37;;;;;;;14.63;7.67;;;14.10;99.90;;;;;;5066750;28;20455;-82
2022/11/08 09:52:05;;;;;;;10.53;6.93;;;14.20;99.90;;;;;;5065339;28;20453;-83
2022/11/08 09:54:39;;;;;;;8.07;5.93;;;14.60;99.90;;;;;;5066456;28;20440;-83
2022/11/08 09:57:08;;;;;;;17.13;8.20;;;15.80;99.90;;;;;;5063918;28;20445;-82
2022/11/08 09:59:42;;;;;;;19.33;7.13;;;17.40;98.40;;;;;;5063015;28;20495;-83
2022/11/08 10:02:16;;;;;;;14.03;7.90;;;17.90;96.80;;;;;;5064215;28;21000;-82
2022/11/08 10:04:45;;;;;;;9.47;6.83;;;18.10;95.10;;;;;;5063170;28;20753;-82
2022/11/08 10:07:23;;;;;;;13.43;8.03;;;18.00;95.10;;;;;;5060626;28;20479;-83
2022/11/08 10:10:18;;;;;;;15.43;7.53;;;18.40;95.10;;;;;;5059811;28;20451;-82
2022/11/08 10:12:50;;;;;;;9.83;7.30;;;17.90;95.00;;;;;;5060099;28;20455;-82
2022/11/08 10:15:24;;;;;;;12.50;6.50;;;17.30;95.90;;;;;;5060491;28;20459;-82
2022/11/08 10:18:10;;;;;;;8.93;6.47;;;16.70;96.10;;;;;;5060751;28;20444;-82
2022/11/08 10:20:46;;;;;;;9.50;5.40;;;16.40;97.30;;;;;;5069647;28;20459;-81
2022/11/08 10:23:21;;;;;;;10.30;6.43;;;16.20;96.90;;;;;;5071376;28;20532;-84
2022/11/08 10:25:51;;;;;;;11.13;6.20;;;15.90;97.30;;;;;;5069727;28;20445;-84
2022/11/08 10:28:21;;;;;;;11.50;6.83;;;15.90;98.20;;;;;;5067996;28;20449;-85
2022/11/08 10:30:50;;;;;;;8.83;5.33;;;15.80;98.50;;;;;;5063119;28;20574;-85
2022/11/08 10:33:23;;;;;;;14.00;6.60;;;15.60;98.80;;;;;;5063909;28;20457;-84
2022/11/08 10:35:56;;;;;;;7.97;4.67;;;15.50;99.20;;;;;;5063097;28;20449;-85
2022/11/08 10:38:29;;;;;;;7.03;4.73;;;15.60;99.30;;;;;;5069793;28;20451;-84
2022/11/08 10:41:04;;;;;;;6.27;4.63;;;16.00;98.80;;;;;;5076838;28;20442;-83
2022/11/08 10:43:35;;;;;;;7.27;5.67;;;16.10;98.20;;;;;;5075354;28;20455;-83
2022/11/08 10:46:01;;;;;;;8.47;4.57;;;16.30;98.00;;;;;;5063908;28;20449;-85
2022/11/08 10:48:34;;;;;;;9.03;4.80;;;16.40;97.60;;;;;;5067549;28;20470;-83
2022/11/08 10:51:00;;;;;;;5.93;4.50;;;16.70;97.80;;;;;;5070061;28;20513;-83
2022/11/08 10:53:30;;;;;;;8.90;4.53;;;16.70;97.20;;;;;;5076785;28;20453;-83
2022/11/08 10:56:00;;;;;;;7.90;6.07;;;16.90;97.20;;;;;;5070212;28;20452;-83
2022/11/08 10:58:35;;;;;;;12.73;4.93;;;17.00;97.20;;;;;;5060235;28;20459;-83
2022/11/08 11:01:05;;;;;;;12.87;5.30;;;17.00;96.90;;;;;;5059196;28;20468;-85
2022/11/08 11:03:33;;;;;;;8.73;5.23;;;17.10;96.90;;;;;;5062467;28;20453;-85
2022/11/08 11:06:02;;;;;;;6.20;4.80;;;17.30;96.60;;;;;;5063980;28;20871;-83
2022/11/08 11:08:28;;;;;;;9.33;4.70;;;17.90;96.10;;;;;;5067402;28;20457;-85
2022/11/08 11:10:56;;;;;;;10.23;5.00;;;18.40;95.10;;;;;;5061429;28;20488;-84
2022/11/08 11:13:25;;;;;;;10.00;4.93;;;18.50;94.20;;;;;;5062389;28;20473;-85
2022/11/08 11:15:58;;;;;;;7.90;4.77;;;18.30;94.70;;;;;;5063282;28;20492;-84
2022/11/08 11:18:29;;;;;;;10.63;6.50;;;17.90;94.40;;;;;;5063166;28;20658;-85
2022/11/08 11:21:05;;;;;;;11.33;6.43;;;17.70;95.20;;;;;;5068766;28;20479;-82
2022/11/08 11:23:34;;;;;;;15.50;6.57;;;17.60;95.50;;;;;;5061276;28;20448;-84
2022/11/08 11:26:03;;;;;;;12.20;6.70;;;17.70;95.90;;;;;;5056095;28;20444;-84
2022/11/08 11:28:30;;;;;;;9.63;6.60;;;18.00;95.40;;;;;;5056649;28;20461;-83
2022/11/08 11:31:00;;;;;;;8.87;6.50;;;17.70;95.30;;;;;;5058604;28;20484;-84
2022/11/08 11:33:29;;;;;;;13.90;6.73;;;17.70;95.50;;;;;;5059215;28;20449;-83
2022/11/08 11:36:01;;;;;;;7.43;5.60;;;17.80;95.60;;;;;;5060125;28;20800;-83
2022/11/08 11:38:37;;;;;;;13.13;7.03;;;17.90;95.70;;;;;;5060762;28;20446;-83
2022/11/08 11:41:11;;;;;;;9.03;5.80;;;17.90;95.60;;;;;;5069688;28;20482;-84
2022/11/08 11:43:43;;;;;;;12.57;6.17;;;18.00;95.30;;;;;;5061383;28;20499;-86
2022/11/08 11:46:17;;;;;;;10.87;6.60;;;19.00;95.20;;;;;;5058694;28;20829;-86
2022/11/08 11:48:46;;;;;;;8.90;5.87;;;22.20;92.40;;;;;;5060595;28;20448;-84
2022/11/08 11:51:14;;;;;;;13.13;5.57;;;25.60;82.70;;;;;;5057378;28;20488;-84
2022/11/08 11:53:42;;;;;;;6.50;5.60;;;26.70;72.40;;;;;;5057736;28;20456;-84
2022/11/08 11:56:39;;;;;;;7.47;5.20;;;27.20;67.20;;;;;;5060671;28;20451;-84
2022/11/08 11:59:39;;;;;;;9.70;6.47;;;28.00;63.20;;;;;;5064478;28;20452;-83
2022/11/08 12:02:30;;;;;;;12.80;6.50;;;28.50;60.70;;;;;;5083850;22;20483;-86
2022/11/08 12:05:15;;;;;;;14.43;9.03;;;26.50;61.10;;;;;;5053045;28;20449;-85
2022/11/08 12:07:49;;;;;;;12.57;7.90;;;24.80;65.60;;;;;;5058740;28;20502;-85
2022/11/08 12:10:26;;;;;;;6.90;5.63;;;25.00;68.00;;;;;;5054274;28;20456;-84
2022/11/08 12:13:02;;;;;;;7.37;5.90;;;26.00;63.90;;;;;;5042905;28;20439;-85
2022/11/08 12:15:35;;;;;;;7.53;5.50;;;26.60;62.70;;;;;;5049360;28;20778;-85
2022/11/08 12:18:24;;;;;;;8.13;5.03;;;27.50;61.40;;;;;;5035005;28;20456;-86
2022/11/08 12:21:01;;;;;;;8.40;5.20;;;28.20;58.80;;;;;;5035711;28;20966;-85
2022/11/08 12:23:46;;;;;;;10.30;6.27;;;28.80;57.50;;;;;;5036244;28;20442;-84
2022/11/08 12:26:21;;;;;;;7.20;5.83;;;28.10;57.30;;;;;;5038154;28;21005;-85
2022/11/08 12:29:12;;;;;;;9.33;6.00;;;27.10;59.10;;;;;;5033656;28;20456;-85
2022/11/08 12:31:48;;;;;;;10.77;6.17;;;26.90;59.40;;;;;;5033520;28;20489;-85
2022/11/08 12:34:21;;;;;;;9.13;6.33;;;26.50;59.40;;;;;;5041189;28;20448;-86
2022/11/08 12:36:57;;;;;;;10.43;6.87;;;25.40;62.90;;;;;;5052088;28;20455;-86
2022/11/08 12:39:34;;;;;;;8.13;6.37;;;24.30;64.20;;;;;;5037353;28;20530;-85
2022/11/08 12:42:19;;;;;;;6.73;5.20;;;23.60;65.90;;;;;;5033106;28;20459;-85
2022/11/08 12:45:09;;;;;;;8.00;6.20;;;22.60;67.50;;;;;;5032669;28;20448;-85
2022/11/08 12:47:44;;;;;;;8.40;5.40;;;21.70;70.20;;;;;;5034145;28;20453;-85
2022/11/08 12:50:20;;;;;;;7.17;4.90;;;21.00;73.00;;;;;;5036176;28;20445;-84
2022/11/08 12:53:05;;;;;;;7.10;5.17;;;20.50;75.10;;;;;;5037268;28;20500;-85
2022/11/08 12:55:36;;;;;;;8.53;5.30;;;20.30;76.30;;;;;;5051614;28;20513;-85
2022/11/08 12:58:24;;;;;;;6.40;5.13;;;20.30;78.20;;;;;;5046032;28;20457;-85
2022/11/08 13:00:54;;;;;;;6.30;4.60;;;20.10;78.20;;;;;;5033437;28;20568;-85
2022/11/08 13:03:51;;;;;;;12.07;7.07;;;20.10;78.80;;;;;;5033578;28;20450;-85
2022/11/08 13:06:24;;;;;;;14.37;4.93;;;20.10;79.50;;;;;;5029659;28;20447;-84
2022/11/08 13:09:01;;;;;;;5.90;4.30;;;20.10;78.60;;;;;;5021016;28;20446;-87